Stratford, WA (98853)

2:59 AM PDT on September 15, 2014 (GMT -0700)
Adrian | Change Station
CLOSE
Current Station
Personal Weather Station
Location: Soap Lake, WA
Elevation: 1201 ft
Nearby Weather Stations

Elev 1201 ft 47.39 °N, 119.38 °W | Updated 19 seconds ago

Clear
Clear
53.2 °F
Feels Like 53.2 °F
N
3.6
Wind Variable Wind from NNE
Gusts 4.9 mph

Today
High -- | Low -- °F
--% Chance of Precip.
Yesterday
High -- | Low -- °F
Precip. -- in
6:34 AM 7:08 PM
Waning Gibbous, 57% visible
Pressure 29.95 in
Visibility 10.0 miles
Clouds Clear
Dew Point 34 °F
Humidity 49%
Rainfall 0.00 in
Snow Depth 0 in , 0 in
UV 0 out of 12
Pollen 2.50 out of 12
Air Quality Not available.
Flu Activity Not available.
METAR KMWH 150952Z AUTO 02005KT 10SM CLR 10/M02 A2996 RMK AO2 SLP142 T01001017

More Conditions Fewer Conditions

Pressure 29.95 in
Visibility 10.0 miles
Clouds Clear
Dew Point 34 °F
Humidity 49%
Rainfall 0.00 in
Snow Depth 0 in , 0 in
UV 0 out of 12
Pollen 2.50 out of 12
Air Quality Not available.
Flu Activity Not available.
METAR KMWH 150952Z AUTO 02005KT 10SM CLR 10/M02 A2996 RMK AO2 SLP142 T01001017

More Conditions Fewer Conditions

10-Day Weather Forecast

Almanac

Astronomy

Sep. 15, 2014 Rise Set
Actual Time 6:34 AM PDT 7:08 PM PDT
Civil Twilight 6:03 AM PDT 7:39 PM PDT
Nautical Twilight 5:27 AM PDT 8:16 PM PDT
Astronomical Twilight 4:48 AM PDT 8:54 PM PDT
Moon 11:32 PM PDT 2:03 PM PDT
Length of Visible Light 13h 35m
Length of Day
12h 34m
Tomorrow will be 3m 22s shorter.
Waning Gibbous, 57% of the Moon is Illuminated
Today
Waning Gibbous
Sep 15
Last Quarter
Sep 24
New
Oct 1
First Quarter
Oct 8
Full

Today's Extremes

State Highs State Lows

Community

WunderPhotos

Upload Photos

1,753,427 photos uploaded!

Nearby

Snow Depth

Station Depth Elevation
Pope Ridge 0 in 3540 ft
Potato Hill 0 in 4500 ft
Wells Creek 0 in 4200 ft
Bunchgrass Meadow 0 in 5000 ft
White Pass E.S. 0 in 4500 ft

Earthquake Activity

City Distance Mag. Time & Date
No recent earthquake activity has been reported nearby.
Minimum magnitude displayed is 2.5.

Coastal Water Temperatures

Place Temperature
No Stations Reporting

Nearby Weather Stations